X  Sluiten METAR luchtvaart weer gegevens      EHAM Amsterdam Airport Schiphol
Temperatuur
23°C Temperatuur
14°C Dauwpunt
57% Vochtigheid



Wind
16 KM/U
10 MPH
4 M/S
9 KTS



70°
ONO
Huidig weer

Wat bewolking Wat bewolking
Luchtdruk 1017.92 (hPa) - 30.06 (inHg)
Zicht 6.2 (mijl) - 10 (km)
Vliegveld
Vliegveld code EHAM

Locatie : Amsterdam Airport Schiphol
Afstand: 26 (km)

Metar:
EHAM 171555Z 07009KT 030V130 9999 FEW045 23/14 Q1018 NOSIG

Tijd: 17-05-2022 17:55 CEST